createdAt,value
2022-07-30T00:00:53.393Z,34.60
2022-07-30T00:06:13.591Z,34.60
2022-07-30T00:11:33.700Z,34.60
2022-07-30T00:16:54.101Z,34.70
2022-07-30T00:22:14.111Z,34.60
2022-07-30T00:27:34.547Z,34.60
2022-07-30T00:32:54.678Z,34.60
2022-07-30T00:38:15.017Z,34.60
2022-07-30T00:43:35.052Z,34.60
2022-07-30T00:48:55.278Z,34.70
2022-07-30T00:54:15.416Z,34.60
2022-07-30T00:59:35.757Z,34.70
2022-07-30T01:04:55.806Z,34.70
2022-07-30T01:10:15.912Z,34.70
2022-07-30T01:15:35.954Z,34.80
2022-07-30T01:20:56.257Z,34.80
2022-07-30T01:26:16.323Z,34.80
2022-07-30T01:31:36.473Z,34.80
2022-07-30T01:36:56.465Z,34.80
2022-07-30T01:42:16.547Z,34.80
2022-07-30T01:47:36.752Z,34.80
2022-07-30T01:52:56.960Z,34.90
2022-07-30T01:58:17.120Z,34.80
2022-07-30T02:03:37.333Z,34.90
2022-07-30T02:08:57.511Z,34.90
2022-07-30T02:14:17.572Z,34.90
2022-07-30T02:19:37.717Z,34.90
2022-07-30T02:25:01.987Z,35.00
2022-07-30T02:30:22.124Z,35.00
2022-07-30T02:35:42.266Z,35.00
2022-07-30T02:41:02.432Z,35.00
2022-07-30T02:46:22.643Z,35.00
2022-07-30T02:51:42.773Z,35.00
2022-07-30T02:57:03.356Z,35.00
2022-07-30T03:02:29.331Z,35.00
2022-07-30T03:07:49.779Z,35.00
2022-07-30T03:13:09.956Z,35.00
2022-07-30T03:18:29.986Z,35.10
2022-07-30T03:23:50.030Z,35.10
2022-07-30T03:29:10.156Z,35.10
2022-07-30T03:34:30.232Z,35.20
2022-07-30T03:39:50.439Z,35.10
2022-07-30T03:45:10.658Z,35.20
2022-07-30T03:50:30.814Z,35.20
2022-07-30T03:55:51.056Z,35.10
2022-07-30T04:01:11.199Z,35.20
2022-07-30T04:06:31.340Z,35.30
2022-07-30T04:11:51.563Z,35.30
2022-07-30T04:17:11.707Z,35.30
2022-07-30T04:22:32.015Z,35.30
2022-07-30T04:27:58.297Z,35.30
2022-07-30T04:33:23.979Z,35.30
2022-07-30T04:38:44.132Z,35.30
2022-07-30T04:44:04.278Z,35.40
2022-07-30T04:49:24.441Z,35.40
2022-07-30T04:54:44.500Z,35.50
2022-07-30T05:00:05.076Z,35.50
2022-07-30T05:05:25.347Z,35.50
2022-07-30T05:10:45.285Z,35.80
2022-07-30T05:16:05.648Z,35.80
2022-07-30T05:21:25.793Z,35.90
2022-07-30T05:26:48.645Z,35.90
2022-07-30T05:32:08.712Z,36.00
2022-07-30T05:37:28.948Z,35.90
2022-07-30T05:42:49.085Z,36.00
2022-07-30T05:48:09.255Z,36.00
2022-07-30T05:53:29.317Z,36.10
2022-07-30T05:58:49.407Z,36.20
2022-07-30T06:04:09.550Z,36.20
2022-07-30T06:09:36.386Z,36.20
2022-07-30T06:14:57.247Z,36.30
2022-07-30T06:20:17.392Z,36.30
2022-07-30T06:25:38.925Z,36.50
2022-07-30T06:30:59.866Z,36.30
2022-07-30T06:36:20.141Z,36.40
2022-07-30T06:41:40.195Z,36.20
2022-07-30T06:47:06.789Z,36.40
2022-07-30T06:52:27.724Z,36.30
2022-07-30T06:57:47.740Z,36.40
2022-07-30T07:03:11.656Z,36.40
2022-07-30T07:08:32.216Z,36.40
2022-07-30T07:13:52.437Z,36.50
2022-07-30T07:19:12.614Z,36.50
2022-07-30T07:24:52.830Z,36.60
2022-07-30T07:30:13.104Z,36.70
2022-07-30T07:35:33.249Z,36.80
2022-07-30T07:41:09.568Z,36.70
2022-07-30T07:46:33.481Z,36.70
2022-07-30T07:51:54.363Z,36.80
2022-07-30T07:57:15.366Z,36.80
2022-07-30T08:02:35.739Z,36.80
2022-07-30T08:07:55.831Z,36.80
2022-07-30T08:13:49.202Z,36.80
2022-07-30T08:18:55.715Z,36.80
2022-07-30T08:24:15.853Z,36.70
2022-07-30T08:29:36.092Z,36.70
2022-07-30T08:34:56.299Z,36.70
2022-07-30T08:40:16.479Z,36.70
2022-07-30T08:45:39.178Z,36.80
2022-07-30T08:50:59.375Z,36.80
2022-07-30T08:56:19.497Z,36.70
2022-07-30T09:01:39.727Z,36.80
2022-07-30T09:06:59.981Z,36.70
2022-07-30T09:12:20.479Z,36.80
2022-07-30T09:17:40.712Z,36.70
2022-07-30T09:23:01.002Z,36.80
2022-07-30T09:28:21.271Z,36.80
2022-07-30T09:33:41.412Z,36.80
2022-07-30T09:39:01.568Z,36.70
2022-07-30T09:44:21.789Z,36.80
2022-07-30T09:49:41.925Z,36.70
2022-07-30T09:55:07.022Z,36.80
2022-07-30T10:00:27.347Z,36.70
2022-07-30T10:05:47.508Z,36.70
2022-07-30T10:11:09.615Z,36.60
2022-07-30T10:16:29.885Z,36.60
2022-07-30T10:21:50.117Z,36.50
2022-07-30T10:27:10.177Z,36.70
2022-07-30T10:32:31.775Z,36.60
2022-07-30T10:37:51.806Z,36.60
2022-07-30T10:43:12.001Z,36.50
2022-07-30T10:48:36.101Z,36.50
2022-07-30T10:53:56.275Z,36.50
2022-07-30T10:59:16.395Z,36.50
2022-07-30T11:04:36.524Z,36.50
2022-07-30T11:10:05.758Z,36.50
2022-07-30T11:15:33.223Z,36.40
2022-07-30T11:20:57.955Z,36.40
2022-07-30T11:26:17.993Z,36.30
2022-07-30T11:31:56.442Z,36.30
2022-07-30T11:37:22.137Z,36.30
2022-07-30T11:42:52.310Z,36.30
2022-07-30T11:48:12.399Z,36.20
2022-07-30T11:53:32.442Z,36.20
2022-07-30T11:58:54.628Z,36.10
2022-07-30T12:04:14.790Z,36.00
2022-07-30T12:09:34.939Z,36.00
2022-07-30T12:14:57.956Z,36.00
2022-07-30T12:20:21.473Z,36.00
2022-07-30T12:25:48.216Z,36.00
2022-07-30T12:31:11.230Z,35.90
2022-07-30T12:36:31.470Z,35.80
2022-07-30T12:41:51.690Z,35.80
2022-07-30T12:47:11.932Z,35.80
2022-07-30T12:52:32.272Z,35.70
2022-07-30T12:57:53.818Z,35.60
2022-07-30T13:03:13.902Z,35.60
2022-07-30T13:08:33.989Z,35.60
2022-07-30T13:13:54.340Z,35.60
2022-07-30T13:19:15.586Z,35.50
2022-07-30T13:24:35.504Z,35.50
2022-07-30T13:29:55.667Z,35.50
2022-07-30T13:35:15.834Z,35.40
2022-07-30T13:40:36.010Z,35.40
2022-07-30T13:45:59.928Z,35.40
2022-07-30T13:51:20.363Z,35.30
2022-07-30T13:56:41.140Z,35.30
2022-07-30T14:02:01.400Z,35.30
2022-07-30T14:07:21.422Z,35.30
2022-07-30T14:12:41.548Z,35.30
2022-07-30T14:18:01.784Z,35.30
2022-07-30T14:23:21.809Z,35.20
2022-07-30T14:28:42.090Z,35.20
2022-07-30T14:34:02.127Z,35.20
2022-07-30T14:39:22.525Z,35.20
2022-07-30T14:44:42.684Z,35.10
2022-07-30T14:50:02.833Z,35.20
2022-07-30T14:55:22.908Z,35.10
2022-07-30T15:00:48.537Z,35.00
2022-07-30T15:06:09.434Z,35.00
2022-07-30T15:11:40.255Z,35.00
2022-07-30T15:17:09.889Z,34.90
2022-07-30T15:22:30.037Z,34.90
2022-07-30T15:27:50.159Z,34.90
2022-07-30T15:33:10.201Z,34.90
2022-07-30T15:38:30.409Z,34.90
2022-07-30T15:43:50.624Z,34.90
2022-07-30T15:49:10.835Z,34.80
2022-07-30T15:54:30.854Z,34.80
2022-07-30T15:59:51.098Z,34.80
2022-07-30T16:05:13.999Z,34.80
2022-07-30T16:10:34.698Z,34.70
2022-07-30T16:15:57.050Z,34.60
2022-07-30T16:21:17.160Z,34.60
2022-07-30T16:26:37.435Z,34.60
2022-07-30T16:31:57.590Z,34.60
2022-07-30T16:37:17.798Z,34.60
2022-07-30T16:42:37.833Z,34.60
2022-07-30T16:47:58.185Z,34.60
2022-07-30T16:53:18.305Z,34.60
2022-07-30T16:58:38.490Z,34.60
2022-07-30T17:03:58.665Z,34.50
2022-07-30T17:09:18.699Z,34.50
2022-07-30T17:14:40.343Z,34.60
2022-07-30T17:20:00.739Z,34.60
2022-07-30T17:25:20.878Z,34.60
2022-07-30T17:30:41.149Z,34.60
2022-07-30T17:36:01.303Z,34.60
2022-07-30T17:41:21.506Z,34.50
2022-07-30T17:46:41.540Z,34.50
2022-07-30T17:52:01.999Z,34.60
2022-07-30T17:57:22.424Z,34.50
2022-07-30T18:02:42.464Z,34.50
2022-07-30T18:08:02.604Z,34.60
2022-07-30T18:13:26.472Z,34.50
2022-07-30T18:18:47.381Z,34.50
2022-07-30T18:24:07.620Z,34.60
2022-07-30T18:29:28.784Z,34.60
2022-07-30T18:34:48.947Z,34.60
2022-07-30T18:40:09.042Z,34.60
2022-07-30T18:45:31.892Z,34.60
2022-07-30T18:50:54.175Z,34.60
2022-07-30T18:56:14.257Z,34.60
2022-07-30T19:01:34.439Z,34.60
2022-07-30T19:06:54.502Z,34.60
2022-07-30T19:12:14.815Z,34.70
2022-07-30T19:17:46.597Z,34.70
2022-07-30T19:23:07.178Z,34.80
2022-07-30T19:28:27.325Z,34.80
2022-07-30T19:33:47.337Z,34.80
2022-07-30T19:39:09.371Z,34.80
2022-07-30T19:44:35.046Z,34.80
2022-07-30T19:49:57.849Z,34.80
2022-07-30T19:55:35.357Z,34.80
2022-07-30T20:00:55.907Z,34.80
2022-07-30T20:06:16.556Z,34.80
2022-07-30T20:11:36.738Z,34.80
2022-07-30T20:16:56.834Z,34.80
2022-07-30T20:22:22.234Z,34.90
2022-07-30T20:27:44.464Z,34.90
2022-07-30T20:33:04.787Z,34.90
2022-07-30T20:38:27.608Z,34.90
2022-07-30T20:43:51.984Z,34.90
2022-07-30T20:49:12.486Z,34.90
2022-07-30T20:54:32.688Z,34.90
2022-07-30T20:59:53.387Z,34.90
2022-07-30T21:05:15.015Z,34.80
2022-07-30T21:10:35.531Z,34.80
2022-07-30T21:16:02.613Z,34.90
2022-07-30T21:21:29.174Z,34.90
2022-07-30T21:26:58.577Z,35.00
2022-07-30T21:32:20.793Z,34.90
2022-07-30T21:37:45.932Z,34.90
2022-07-30T21:43:08.143Z,34.90
2022-07-30T21:48:28.396Z,34.90
2022-07-30T21:53:48.966Z,35.00
2022-07-30T21:59:09.362Z,34.90
2022-07-30T22:04:29.199Z,34.90
2022-07-30T22:09:49.319Z,34.90
2022-07-30T22:15:09.396Z,34.90
2022-07-30T22:20:29.492Z,34.90
2022-07-30T22:25:50.078Z,34.90
2022-07-30T22:31:20.492Z,35.00
2022-07-30T22:36:40.681Z,34.90
2022-07-30T22:42:01.584Z,35.00
2022-07-30T22:47:51.159Z,35.00
2022-07-30T22:53:23.757Z,35.00
2022-07-30T22:58:42.720Z,35.00
2022-07-30T23:04:03.362Z,35.00
2022-07-30T23:09:23.459Z,35.00
2022-07-30T23:14:46.720Z,35.00
2022-07-30T23:20:06.910Z,35.00
2022-07-30T23:25:27.124Z,35.00
2022-07-30T23:30:58.695Z,35.10
2022-07-30T23:36:18.860Z,35.10
2022-07-30T23:41:38.974Z,35.00
2022-07-30T23:46:59.396Z,35.00
2022-07-30T23:52:19.824Z,35.10
2022-07-30T23:57:39.894Z,35.00
